createdAt,value
2023-04-18T00:02:09.406Z,10.34
2023-04-18T00:04:36.875Z,10.40
2023-04-18T00:07:03.969Z,10.41
2023-04-18T00:09:31.186Z,10.23
2023-04-18T00:11:58.377Z,10.43
2023-04-18T00:14:25.429Z,10.43
2023-04-18T00:16:54.336Z,10.40
2023-04-18T00:19:21.792Z,10.31
2023-04-18T00:21:49.620Z,10.13
2023-04-18T00:24:16.832Z,10.19
2023-04-18T00:26:43.956Z,10.30
2023-04-18T00:29:11.135Z,10.23
2023-04-18T00:31:38.070Z,10.21
2023-04-18T00:34:05.588Z,9.92
2023-04-18T00:36:33.067Z,10.03
2023-04-18T00:39:00.516Z,9.73
2023-04-18T00:41:28.468Z,9.88
2023-04-18T00:43:55.910Z,10.20
2023-04-18T00:46:23.591Z,9.93
2023-04-18T00:48:50.897Z,10.19
2023-04-18T00:51:18.415Z,10.18
2023-04-18T00:53:46.297Z,10.10
2023-04-18T00:56:13.610Z,10.00
2023-04-18T00:58:41.145Z,9.90
2023-04-18T01:01:09.816Z,9.97
2023-04-18T01:03:37.622Z,10.01
2023-04-18T01:06:05.043Z,9.96
2023-04-18T01:08:34.011Z,10.00
2023-04-18T01:11:01.168Z,10.09
2023-04-18T01:13:28.194Z,10.08
2023-04-18T01:15:56.196Z,9.96
2023-04-18T01:18:24.531Z,10.02
2023-04-18T01:20:53.438Z,9.97
2023-04-18T01:23:21.625Z,9.81
2023-04-18T01:25:52.248Z,10.00
2023-04-18T01:28:24.147Z,9.99
2023-04-18T01:30:51.649Z,9.90
2023-04-18T01:33:18.892Z,9.98
2023-04-18T01:35:47.949Z,10.00
2023-04-18T01:38:15.149Z,9.84
2023-04-18T01:40:42.262Z,9.86
2023-04-18T01:43:09.783Z,10.07
2023-04-18T01:45:38.661Z,10.01
2023-04-18T01:48:06.108Z,9.97
2023-04-18T01:50:33.765Z,9.86
2023-04-18T01:53:00.878Z,9.87
2023-04-18T01:55:28.136Z,10.05
2023-04-18T01:57:55.357Z,10.06
2023-04-18T02:00:22.766Z,9.99
2023-04-18T02:02:50.648Z,10.03
2023-04-18T02:05:22.255Z,10.01
2023-04-18T02:07:50.446Z,10.14
2023-04-18T02:10:19.171Z,10.13
2023-04-18T02:12:46.869Z,10.15
2023-04-18T02:15:14.218Z,10.16
2023-04-18T02:17:42.264Z,9.96
2023-04-18T02:20:11.092Z,10.03
2023-04-18T02:22:41.680Z,9.90
2023-04-18T02:25:14.309Z,10.08
2023-04-18T02:27:41.506Z,9.88
2023-04-18T02:30:09.430Z,9.79
2023-04-18T02:32:39.336Z,10.05
2023-04-18T02:35:06.972Z,9.90
2023-04-18T02:37:34.104Z,10.03
2023-04-18T02:40:01.456Z,9.91
2023-04-18T02:42:33.149Z,10.05
2023-04-18T02:45:01.767Z,9.86
2023-04-18T02:47:40.486Z,10.09
2023-04-18T02:50:17.539Z,10.00
2023-04-18T02:52:51.195Z,9.94
2023-04-18T02:55:21.266Z,9.92
2023-04-18T02:57:48.848Z,9.84
2023-04-18T03:00:45.538Z,9.99
2023-04-18T03:03:30.824Z,9.90
2023-04-18T03:06:16.592Z,10.04
2023-04-18T03:08:46.158Z,10.23
2023-04-18T03:11:17.020Z,10.15
2023-04-18T03:13:45.902Z,10.31
2023-04-18T03:16:15.255Z,10.47
2023-04-18T03:18:43.727Z,10.06
2023-04-18T03:21:11.584Z,10.32
2023-04-18T03:23:39.130Z,10.62
2023-04-18T03:26:08.315Z,10.28
2023-04-18T03:28:37.889Z,10.64
2023-04-18T03:31:05.697Z,10.65
2023-04-18T03:33:35.975Z,10.78
2023-04-18T03:36:09.417Z,10.75
2023-04-18T03:38:40.670Z,10.80
2023-04-18T03:41:09.061Z,10.82
2023-04-18T03:43:38.183Z,10.80
2023-04-18T03:46:05.599Z,10.80
2023-04-18T03:48:37.385Z,10.76
2023-04-18T03:51:09.208Z,10.36
2023-04-18T03:53:37.160Z,10.36
2023-04-18T03:56:04.347Z,10.23
2023-04-18T03:59:01.023Z,10.12
2023-04-18T04:01:28.366Z,10.01
2023-04-18T04:03:56.030Z,9.98
2023-04-18T04:06:24.285Z,10.03
2023-04-18T04:08:52.237Z,10.03
2023-04-18T04:11:24.147Z,9.89
2023-04-18T04:13:54.628Z,10.14
2023-04-18T04:16:28.723Z,10.16
2023-04-18T04:18:59.372Z,10.11
2023-04-18T04:21:33.494Z,10.32
2023-04-18T04:24:01.700Z,10.40
2023-04-18T04:26:43.439Z,10.51
2023-04-18T04:29:19.127Z,10.51
2023-04-18T04:31:48.358Z,10.39
2023-04-18T04:34:24.987Z,10.46
2023-04-18T04:36:54.590Z,10.34
2023-04-18T04:39:42.261Z,10.68
2023-04-18T04:42:44.395Z,10.17
2023-04-18T04:45:24.676Z,10.09
2023-04-18T04:48:02.945Z,9.81
2023-04-18T04:50:31.140Z,10.79
2023-04-18T04:52:58.759Z,10.87
2023-04-18T04:55:26.466Z,10.85
2023-04-18T04:57:55.792Z,11.02
2023-04-18T05:00:37.364Z,11.10
2023-04-18T05:03:05.014Z,11.35
2023-04-18T05:05:33.113Z,11.02
2023-04-18T05:08:00.697Z,11.42
2023-04-18T05:10:28.158Z,11.43
2023-04-18T05:12:55.378Z,11.68
2023-04-18T05:15:23.481Z,11.73
2023-04-18T05:17:50.770Z,11.71
2023-04-18T05:20:17.836Z,11.66
2023-04-18T05:22:44.961Z,11.49
2023-04-18T05:25:12.749Z,11.69
2023-04-18T05:27:39.994Z,11.62
2023-04-18T05:30:07.782Z,11.63
2023-04-18T05:32:34.964Z,11.88
2023-04-18T05:35:02.176Z,11.98
2023-04-18T05:37:30.405Z,11.71
2023-04-18T05:39:59.299Z,11.70
2023-04-18T05:42:27.858Z,11.89
2023-04-18T05:44:54.883Z,12.02
2023-04-18T05:47:27.100Z,11.68
2023-04-18T05:49:55.577Z,11.93
2023-04-18T05:52:23.126Z,12.23
2023-04-18T05:54:50.168Z,12.20
2023-04-18T05:57:17.534Z,12.19
2023-04-18T05:59:44.918Z,12.33
2023-04-18T06:02:13.657Z,12.22
2023-04-18T06:04:42.659Z,12.55
2023-04-18T06:07:10.563Z,12.51
2023-04-18T06:09:37.723Z,12.49
2023-04-18T06:12:05.099Z,12.84
2023-04-18T06:14:32.313Z,13.11
2023-04-18T06:16:59.662Z,13.29
2023-04-18T06:19:26.849Z,13.25
2023-04-18T06:21:54.080Z,13.37
2023-04-18T06:24:21.285Z,13.30
2023-04-18T06:26:48.357Z,13.82
2023-04-18T06:29:15.566Z,13.80
2023-04-18T06:31:46.344Z,14.10
2023-04-18T06:34:14.211Z,14.26
2023-04-18T06:36:41.503Z,14.72
2023-04-18T06:39:09.025Z,15.03
2023-04-18T06:41:36.209Z,15.43
2023-04-18T06:44:04.711Z,15.77
2023-04-18T06:46:32.822Z,16.03
2023-04-18T06:49:00.941Z,16.15
2023-04-18T06:51:29.136Z,16.21
2023-04-18T06:53:56.343Z,16.22
2023-04-18T06:56:23.780Z,16.46
2023-04-18T06:58:53.038Z,16.62
2023-04-18T07:01:21.071Z,17.35
2023-04-18T07:03:48.219Z,17.68
2023-04-18T07:06:15.383Z,18.36
2023-04-18T07:08:42.596Z,18.71
2023-04-18T07:11:09.787Z,19.25
2023-04-18T07:13:36.935Z,19.41
2023-04-18T07:16:04.218Z,19.52
2023-04-18T07:18:37.874Z,19.94
2023-04-18T07:21:09.228Z,20.51
2023-04-18T07:23:39.636Z,20.22
2023-04-18T07:26:07.110Z,21.13
2023-04-18T07:28:34.776Z,21.56
2023-04-18T07:31:03.496Z,21.09
2023-04-18T07:33:35.284Z,20.68
2023-04-18T07:36:03.416Z,21.45
2023-04-18T07:38:31.067Z,21.60
2023-04-18T07:41:02.356Z,21.93
2023-04-18T07:43:30.901Z,22.32
2023-04-18T07:45:58.894Z,22.15
2023-04-18T07:48:27.368Z,22.73
2023-04-18T07:51:17.185Z,22.46
2023-04-18T07:53:50.921Z,22.50
2023-04-18T07:56:19.672Z,22.85
2023-04-18T07:58:49.206Z,22.67
2023-04-18T08:01:18.664Z,22.98
2023-04-18T08:03:51.638Z,23.08
2023-04-18T08:06:18.990Z,23.88
2023-04-18T08:08:46.627Z,23.37
2023-04-18T08:11:14.028Z,23.50
2023-04-18T08:13:41.120Z,23.77
2023-04-18T08:16:09.196Z,23.16
2023-04-18T08:18:37.163Z,23.18
2023-04-18T08:21:04.908Z,23.55
2023-04-18T08:23:32.096Z,23.59
2023-04-18T08:25:59.505Z,23.40
2023-04-18T08:28:26.938Z,23.99
2023-04-18T08:30:55.318Z,24.20
2023-04-18T08:33:26.587Z,23.89
2023-04-18T08:35:54.411Z,23.60
2023-04-18T08:38:21.625Z,24.55
2023-04-18T08:40:49.085Z,24.76
2023-04-18T08:43:16.231Z,24.67
2023-04-18T08:45:44.891Z,23.87
2023-04-18T08:48:14.063Z,23.34
2023-04-18T08:50:42.144Z,22.88
2023-04-18T08:53:10.562Z,22.94
2023-04-18T08:55:40.695Z,22.11
2023-04-18T08:58:08.130Z,21.90
2023-04-18T09:00:35.428Z,22.59
2023-04-18T09:03:03.825Z,23.06
2023-04-18T09:05:31.437Z,22.93
2023-04-18T09:07:58.521Z,23.09
2023-04-18T09:10:30.292Z,23.62
2023-04-18T09:12:58.579Z,24.15
2023-04-18T09:15:29.356Z,23.85
2023-04-18T09:17:59.599Z,23.72
2023-04-18T09:20:38.281Z,23.34
2023-04-18T09:23:11.373Z,22.84
2023-04-18T09:25:44.494Z,21.88
2023-04-18T09:28:29.123Z,21.37
2023-04-18T09:30:58.436Z,20.65
2023-04-18T09:33:33.123Z,19.75
2023-04-18T09:36:21.526Z,19.52
2023-04-18T09:38:50.397Z,18.67
2023-04-18T09:41:20.697Z,18.57
2023-04-18T09:43:49.533Z,18.11
2023-04-18T09:46:17.881Z,18.00
2023-04-18T09:48:45.669Z,17.72
2023-04-18T09:51:16.376Z,17.50
2023-04-18T09:53:47.591Z,17.58
2023-04-18T09:56:26.232Z,17.47
2023-04-18T09:59:03.432Z,17.35
2023-04-18T10:01:31.056Z,17.23
2023-04-18T10:04:02.390Z,17.02
2023-04-18T10:06:30.239Z,16.86
2023-04-18T10:08:57.821Z,16.84
2023-04-18T10:11:25.409Z,16.79
2023-04-18T10:13:57.692Z,16.85
2023-04-18T10:16:26.218Z,16.70
2023-04-18T10:18:53.473Z,16.56
2023-04-18T10:21:22.047Z,16.41
2023-04-18T10:23:50.540Z,16.48
2023-04-18T10:26:17.683Z,16.47
2023-04-18T10:28:53.675Z,16.50
2023-04-18T10:31:29.215Z,16.36
2023-04-18T10:34:18.233Z,16.15
2023-04-18T10:37:05.050Z,16.49
2023-04-18T10:39:48.682Z,16.56
2023-04-18T10:42:15.793Z,16.47
2023-04-18T10:44:43.031Z,16.18
2023-04-18T10:47:10.087Z,16.04
2023-04-18T10:49:37.156Z,16.24
2023-04-18T10:52:06.294Z,16.35
2023-04-18T10:54:57.619Z,16.79
2023-04-18T10:57:37.125Z,17.51
2023-04-18T11:00:05.726Z,17.47
2023-04-18T11:02:33.563Z,17.38
2023-04-18T11:05:04.757Z,17.32
2023-04-18T11:07:44.673Z,17.21
2023-04-18T11:10:13.170Z,16.99
2023-04-18T11:12:41.387Z,16.96
2023-04-18T11:15:17.800Z,16.95
2023-04-18T11:17:45.064Z,17.16
2023-04-18T11:20:14.541Z,17.20
2023-04-18T11:22:46.511Z,17.05
2023-04-18T11:25:16.542Z,16.87
2023-04-18T11:27:48.896Z,16.87
2023-04-18T11:30:16.372Z,16.98
2023-04-18T11:32:44.103Z,17.04
2023-04-18T11:35:12.852Z,17.07
2023-04-18T11:37:42.045Z,17.33
2023-04-18T11:40:10.234Z,17.58
2023-04-18T11:42:39.448Z,17.57
2023-04-18T11:45:12.132Z,17.39
2023-04-18T11:47:42.129Z,17.22
2023-04-18T11:50:11.309Z,17.34
2023-04-18T11:52:41.190Z,17.35
2023-04-18T11:55:21.465Z,17.38
2023-04-18T11:57:56.271Z,17.48
2023-04-18T12:00:38.674Z,17.68
2023-04-18T12:03:13.375Z,17.87
2023-04-18T12:05:42.543Z,18.03
2023-04-18T12:08:11.937Z,18.10
2023-04-18T12:10:47.255Z,18.20
2023-04-18T12:13:15.310Z,18.36
2023-04-18T12:15:47.070Z,18.45
2023-04-18T12:18:17.127Z,18.39
2023-04-18T12:20:54.305Z,18.44
2023-04-18T12:23:35.971Z,18.39
2023-04-18T12:26:08.050Z,18.32
2023-04-18T12:28:35.815Z,18.27
2023-04-18T12:31:07.138Z,18.25
2023-04-18T12:33:36.831Z,18.31
2023-04-18T12:36:05.582Z,18.69
2023-04-18T12:38:32.757Z,18.88
2023-04-18T12:41:00.111Z,18.88
2023-04-18T12:43:27.306Z,18.58
2023-04-18T12:45:54.547Z,18.33
2023-04-18T12:48:21.657Z,18.30
2023-04-18T12:50:48.920Z,18.29
2023-04-18T12:53:16.504Z,18.27
2023-04-18T12:55:44.557Z,18.31
2023-04-18T12:58:15.274Z,18.21
2023-04-18T13:00:42.539Z,17.98
2023-04-18T13:03:11.739Z,17.98
2023-04-18T13:05:40.588Z,17.69
2023-04-18T13:08:16.268Z,17.72
2023-04-18T13:10:44.791Z,17.67
2023-04-18T13:13:12.139Z,17.47
2023-04-18T13:15:39.480Z,17.46
2023-04-18T13:18:06.844Z,17.44
2023-04-18T13:20:34.915Z,17.45
2023-04-18T13:23:03.019Z,17.44
2023-04-18T13:25:30.244Z,17.56
2023-04-18T13:27:58.656Z,17.88
2023-04-18T13:30:26.286Z,18.28
2023-04-18T13:32:53.618Z,18.50
2023-04-18T13:35:20.770Z,18.48
2023-04-18T13:37:48.015Z,18.17
2023-04-18T13:40:15.864Z,18.25
2023-04-18T13:42:43.407Z,18.16
2023-04-18T13:45:10.953Z,18.90
2023-04-18T13:47:38.428Z,19.87
2023-04-18T13:50:06.214Z,20.64
2023-04-18T13:52:33.407Z,21.67
2023-04-18T13:55:01.118Z,21.90
2023-04-18T13:57:28.571Z,21.53
2023-04-18T13:59:55.793Z,20.66
2023-04-18T14:02:23.244Z,20.04
2023-04-18T14:04:52.055Z,19.13
2023-04-18T14:07:19.444Z,19.60
2023-04-18T14:09:48.273Z,20.46
2023-04-18T14:12:15.456Z,21.20
2023-04-18T14:14:42.526Z,21.77
2023-04-18T14:17:09.615Z,21.42
2023-04-18T14:19:36.758Z,21.30
2023-04-18T14:22:03.875Z,20.84
2023-04-18T14:24:30.914Z,20.34
2023-04-18T14:26:58.519Z,19.97
2023-04-18T14:29:25.583Z,19.28
2023-04-18T14:31:52.704Z,18.65
2023-04-18T14:34:19.893Z,17.96
2023-04-18T14:36:47.072Z,18.17
2023-04-18T14:39:14.322Z,18.18
2023-04-18T14:41:41.730Z,17.94
2023-04-18T14:44:08.916Z,17.53
2023-04-18T14:46:36.006Z,17.22
2023-04-18T14:49:03.076Z,17.08
2023-04-18T14:51:30.132Z,16.61
2023-04-18T14:53:57.210Z,16.52
2023-04-18T14:56:24.438Z,16.36
2023-04-18T14:58:51.588Z,16.21
2023-04-18T15:01:18.859Z,16.04
2023-04-18T15:03:46.281Z,15.43
2023-04-18T15:06:13.733Z,15.58
2023-04-18T15:08:41.511Z,15.40
2023-04-18T15:11:09.028Z,15.25
2023-04-18T15:13:36.808Z,15.32
2023-04-18T15:16:04.057Z,15.29
2023-04-18T15:18:31.224Z,15.01
2023-04-18T15:21:01.211Z,15.01
2023-04-18T15:23:28.661Z,15.12
2023-04-18T15:25:56.505Z,14.97
2023-04-18T15:28:23.850Z,14.91
2023-04-18T15:30:51.267Z,14.83
2023-04-18T15:33:20.587Z,14.73
2023-04-18T15:35:48.122Z,14.71
2023-04-18T15:38:15.297Z,14.78
2023-04-18T15:40:43.683Z,14.70
2023-04-18T15:43:11.844Z,14.66
2023-04-18T15:45:39.082Z,14.80
2023-04-18T15:48:06.795Z,14.77
2023-04-18T15:50:33.999Z,14.69
2023-04-18T15:53:02.438Z,14.57
2023-04-18T15:55:29.931Z,14.58
2023-04-18T15:57:57.470Z,14.53
2023-04-18T16:00:25.082Z,14.47
2023-04-18T16:02:52.897Z,14.54
2023-04-18T16:05:20.382Z,14.53
2023-04-18T16:07:47.515Z,14.55
2023-04-18T16:10:15.460Z,14.51
2023-04-18T16:12:42.976Z,14.42
2023-04-18T16:15:10.691Z,14.40
2023-04-18T16:17:38.267Z,14.33
2023-04-18T16:20:08.343Z,14.39
2023-04-18T16:22:36.137Z,14.46
2023-04-18T16:25:04.700Z,14.48
2023-04-18T16:27:33.157Z,14.35
2023-04-18T16:30:00.428Z,14.33
2023-04-18T16:32:27.652Z,14.29
2023-04-18T16:34:54.901Z,14.13
2023-04-18T16:37:22.178Z,14.06
2023-04-18T16:39:49.392Z,14.08
2023-04-18T16:42:16.628Z,14.03
2023-04-18T16:44:45.402Z,13.96
2023-04-18T16:47:12.642Z,13.99
2023-04-18T16:49:40.681Z,13.99
2023-04-18T16:52:07.710Z,13.90
2023-04-18T16:54:35.661Z,13.79
2023-04-18T16:57:02.925Z,13.80
2023-04-18T16:59:30.184Z,13.79
2023-04-18T17:01:57.299Z,13.79
2023-04-18T17:04:27.087Z,13.68
2023-04-18T17:06:54.321Z,13.60
2023-04-18T17:09:21.436Z,13.48
2023-04-18T17:11:48.689Z,13.43
2023-04-18T17:14:16.718Z,13.50
2023-04-18T17:16:44.116Z,13.43
2023-04-18T17:19:11.508Z,13.54
2023-04-18T17:21:38.872Z,13.66
2023-04-18T17:24:07.175Z,13.73
2023-04-18T17:26:35.789Z,13.63
2023-04-18T17:29:04.602Z,13.48
2023-04-18T17:31:32.770Z,13.60
2023-04-18T17:34:00.997Z,13.53
2023-04-18T17:36:28.409Z,13.41
2023-04-18T17:38:56.266Z,13.40
2023-04-18T17:41:23.447Z,13.29
2023-04-18T17:43:51.473Z,13.08
2023-04-18T17:46:18.802Z,13.13
2023-04-18T17:48:46.179Z,13.06
2023-04-18T17:51:13.353Z,13.09
2023-04-18T17:53:40.419Z,12.98
2023-04-18T17:56:07.531Z,13.02
2023-04-18T17:58:34.723Z,13.13
2023-04-18T18:01:01.934Z,13.08
2023-04-18T18:03:29.274Z,13.01
2023-04-18T18:05:56.743Z,12.86
2023-04-18T18:08:24.609Z,12.91
2023-04-18T18:10:51.665Z,12.90
2023-04-18T18:13:18.726Z,13.00
2023-04-18T18:15:45.883Z,13.09
2023-04-18T18:18:26.896Z,12.82
2023-04-18T18:20:54.631Z,12.86
2023-04-18T18:23:21.804Z,12.77
2023-04-18T18:25:50.346Z,12.68
2023-04-18T18:28:18.009Z,12.52
2023-04-18T18:30:45.102Z,12.43
2023-04-18T18:33:12.121Z,12.38
2023-04-18T18:35:39.415Z,12.28
2023-04-18T18:38:06.660Z,11.98
2023-04-18T18:40:34.392Z,12.14
2023-04-18T18:43:01.596Z,12.14
2023-04-18T18:45:28.782Z,11.96
2023-04-18T18:47:55.939Z,11.99
2023-04-18T18:50:23.318Z,11.97
2023-04-18T18:52:50.428Z,11.95
2023-04-18T18:55:17.768Z,11.91
2023-04-18T18:57:44.974Z,11.90
2023-04-18T19:00:13.514Z,11.88
2023-04-18T19:02:41.136Z,11.73
2023-04-18T19:05:09.004Z,11.80
2023-04-18T19:07:36.173Z,11.78
2023-04-18T19:10:03.655Z,11.60
2023-04-18T19:12:34.694Z,11.49
2023-04-18T19:15:02.342Z,11.68
2023-04-18T19:17:36.035Z,11.62
2023-04-18T19:20:03.647Z,11.57
2023-04-18T19:22:33.124Z,11.51
2023-04-18T19:25:00.934Z,11.51
2023-04-18T19:27:28.889Z,11.46
2023-04-18T19:29:56.019Z,11.41
2023-04-18T19:32:32.013Z,11.39
2023-04-18T19:34:59.735Z,11.23
2023-04-18T19:37:26.904Z,11.26
2023-04-18T19:39:54.104Z,11.38
2023-04-18T19:42:21.505Z,11.36
2023-04-18T19:44:48.529Z,11.23
2023-04-18T19:47:15.736Z,11.27
2023-04-18T19:49:44.684Z,11.23
2023-04-18T19:52:11.836Z,11.28
2023-04-18T19:54:39.014Z,11.09
2023-04-18T19:57:06.444Z,11.21
2023-04-18T19:59:33.696Z,10.96
2023-04-18T20:02:03.461Z,11.16
2023-04-18T20:04:34.454Z,11.15
2023-04-18T20:07:02.730Z,11.21
2023-04-18T20:09:29.966Z,11.23
2023-04-18T20:12:00.526Z,11.20
2023-04-18T20:14:29.141Z,11.18
2023-04-18T20:16:57.126Z,10.96
2023-04-18T20:19:27.192Z,11.09
2023-04-18T20:21:54.229Z,10.86
2023-04-18T20:24:21.525Z,11.04
2023-04-18T20:26:48.644Z,10.92
2023-04-18T20:29:16.280Z,10.77
2023-04-18T20:31:45.588Z,10.68
2023-04-18T20:34:20.363Z,10.77
2023-04-18T20:36:47.864Z,10.38
2023-04-18T20:39:15.744Z,10.93
2023-04-18T20:41:49.200Z,10.90
2023-04-18T20:44:17.262Z,10.90
2023-04-18T20:46:44.390Z,10.81
2023-04-18T20:49:11.887Z,10.59
2023-04-18T20:51:38.952Z,10.69
2023-04-18T20:54:06.203Z,10.59
2023-04-18T20:56:33.988Z,10.73
2023-04-18T20:59:01.391Z,10.72
2023-04-18T21:01:28.657Z,10.45
2023-04-18T21:03:56.063Z,10.74
2023-04-18T21:06:28.516Z,10.70
2023-04-18T21:08:57.013Z,10.52
2023-04-18T21:11:25.965Z,10.63
2023-04-18T21:13:53.321Z,10.48
2023-04-18T21:16:24.254Z,10.58
2023-04-18T21:18:51.770Z,10.51
2023-04-18T21:21:24.985Z,10.38
2023-04-18T21:23:52.986Z,10.54
2023-04-18T21:26:22.046Z,10.54
2023-04-18T21:32:01.100Z,10.57
2023-04-18T21:34:58.621Z,10.50
2023-04-18T21:37:27.504Z,10.50
2023-04-18T21:40:00.221Z,10.39
2023-04-18T21:42:35.404Z,10.39
2023-04-18T21:45:06.289Z,10.43
2023-04-18T21:47:33.833Z,10.28
2023-04-18T21:50:00.944Z,10.51
2023-04-18T21:52:29.145Z,10.48
2023-04-18T21:57:47.795Z,10.43
2023-04-18T22:00:16.267Z,10.35
2023-04-18T22:02:48.250Z,10.38
2023-04-18T22:05:18.122Z,10.27
2023-04-18T22:07:57.902Z,10.38
2023-04-18T22:10:25.898Z,10.39
2023-04-18T22:12:56.224Z,10.39
2023-04-18T22:15:30.892Z,10.46
2023-04-18T22:18:01.239Z,10.44
2023-04-18T22:20:32.717Z,10.41
2023-04-18T22:23:00.533Z,10.38
2023-04-18T22:25:27.687Z,10.45
2023-04-18T22:27:55.012Z,10.25
2023-04-18T22:30:22.374Z,10.19
2023-04-18T22:32:49.855Z,10.31
2023-04-18T22:35:17.090Z,10.33
2023-04-18T22:37:47.902Z,10.29
2023-04-18T22:40:16.910Z,10.14
2023-04-18T22:42:44.813Z,10.21
2023-04-18T22:45:12.142Z,10.22
2023-04-18T22:47:39.826Z,9.92
2023-04-18T22:50:07.997Z,9.99
2023-04-18T22:52:40.875Z,10.05
2023-04-18T22:55:09.429Z,9.83
2023-04-18T22:57:38.185Z,9.76
2023-04-18T23:00:06.750Z,9.95
2023-04-18T23:02:34.048Z,9.84
2023-04-18T23:05:02.684Z,9.88
2023-04-18T23:07:30.913Z,9.86
2023-04-18T23:10:07.893Z,9.75
2023-04-18T23:12:44.092Z,9.78
2023-04-18T23:15:15.031Z,9.74
2023-04-18T23:17:53.995Z,9.70
2023-04-18T23:20:21.887Z,9.50
2023-04-18T23:22:59.526Z,9.49
2023-04-18T23:25:26.935Z,9.61
2023-04-18T23:27:56.315Z,9.59
2023-04-18T23:30:27.002Z,9.56
2023-04-18T23:32:58.922Z,9.46
2023-04-18T23:35:31.887Z,9.38
2023-04-18T23:37:59.026Z,9.52
2023-04-18T23:40:26.248Z,9.47
2023-04-18T23:42:53.345Z,9.47
2023-04-18T23:45:20.612Z,9.46
2023-04-18T23:47:47.887Z,9.45
2023-04-18T23:50:15.026Z,9.40
2023-04-18T23:52:42.172Z,9.21
